Time;durP1;ratioP1;P1;durP2;ratioP2;P2;SDS_P1;SDS_P2;PMS_P1;PMS_P2;Temp;Humidity;BMP_temperature;BMP_pressure;BME280_temperature;BME280_humidity;BME280_pressure;Samples;Min_cycle;Max_cycle;Signal;HPM_P1;HPM_P2
2022/10/26 00:01:13;;;;;;;12.60;8.73;;;;;;;10.71;100.00;99200.80;1690061;83;21089;-83
2022/10/26 00:03:43;;;;;;;17.20;9.50;;;;;;;10.72;100.00;99202.98;1682894;83;21047;-84
2022/10/26 00:06:15;;;;;;;12.93;8.68;;;;;;;10.71;100.00;99202.17;1688026;83;20991;-85
2022/10/26 00:08:44;;;;;;;18.27;9.48;;;;;;;10.73;100.00;99208.71;1683727;83;21019;-87
2022/10/26 00:11:13;;;;;;;15.98;9.85;;;;;;;10.73;100.00;99207.34;1708042;82;21071;-83
2022/10/26 00:13:41;;;;;;;14.40;10.05;;;;;;;10.72;100.00;99198.30;1700270;81;21840;-84
2022/10/26 00:16:13;;;;;;;18.90;12.13;;;;;;;10.72;100.00;99207.91;1684848;84;21004;-85
2022/10/26 00:18:41;;;;;;;23.00;12.57;;;;;;;10.72;100.00;99209.84;1697765;82;20948;-84
2022/10/26 00:21:09;;;;;;;23.07;13.18;;;;;;;10.70;100.00;99207.42;1707383;82;21082;-85
2022/10/26 00:23:37;;;;;;;21.07;14.13;;;;;;;10.71;100.00;99210.97;1702090;83;21547;-86
2022/10/26 00:26:04;;;;;;;19.95;12.70;;;;;;;10.70;100.00;99207.98;1670061;82;21901;-87
2022/10/26 00:28:31;;;;;;;19.07;13.05;;;;;;;10.71;100.00;99212.34;1709176;83;21021;-83
2022/10/26 00:31:04;;;;;;;20.88;13.00;;;;;;;10.70;100.00;99212.11;1692091;83;21068;-86
2022/10/26 00:33:31;;;;;;;21.77;12.75;;;;;;;10.70;100.00;99214.85;1702015;83;21104;-85
2022/10/26 00:35:57;;;;;;;16.93;11.60;;;;;;;10.71;100.00;99219.21;1702021;82;21492;-86
2022/10/26 00:38:24;;;;;;;16.75;11.00;;;;;;;10.71;100.00;99212.34;1696367;82;21181;-84
2022/10/26 00:40:53;;;;;;;15.60;9.90;;;;;;;10.72;100.00;99218.89;1686128;83;21102;-84
2022/10/26 00:43:27;;;;;;;22.45;11.33;;;;;;;10.72;100.00;99219.45;1707043;82;21490;-84
2022/10/26 00:45:55;;;;;;;16.85;11.08;;;;;;;10.73;100.00;99225.19;1697761;83;21049;-86
2022/10/26 00:48:26;;;;;;;14.75;10.05;;;;;;;10.72;100.00;99224.94;1721923;81;21477;-85
2022/10/26 00:50:52;;;;;;;16.87;9.45;;;;;;;10.73;100.00;99218.32;1706606;81;21532;-85
2022/10/26 00:53:20;;;;;;;14.10;9.60;;;;;;;10.73;100.00;99208.71;1733893;82;21050;-86
2022/10/26 00:55:49;;;;;;;13.62;8.95;;;;;;;10.74;100.00;99211.70;1720609;81;21194;-85
2022/10/26 00:58:19;;;;;;;12.20;8.83;;;;;;;10.73;100.00;99220.50;1729134;82;21051;-84
2022/10/26 01:00:46;;;;;;;12.70;8.60;;;;;;;10.74;100.00;99214.45;1725863;81;21595;-83
2022/10/26 01:03:13;;;;;;;11.10;8.53;;;;;;;10.74;100.00;99204.83;1719166;81;21659;-82
2022/10/26 01:05:42;;;;;;;15.85;8.50;;;;;;;10.73;100.00;99206.77;1722060;82;21653;-83
2022/10/26 01:08:12;;;;;;;14.85;9.45;;;;;;;10.73;100.00;99212.27;1726343;81;21083;-83
2022/10/26 01:10:42;;;;;;;12.93;8.58;;;;;;;10.73;100.00;99219.70;1724622;81;21015;-82
2022/10/26 01:13:10;;;;;;;16.77;9.18;;;;;;;10.73;100.00;99218.32;1716319;81;21020;-81
2022/10/26 01:15:46;;;;;;;14.83;8.48;;;;;;;10.74;100.00;99218.56;1707947;83;20967;-82
2022/10/26 01:18:32;;;;;;;12.28;8.20;;;;;;;10.73;100.00;99221.88;1711639;82;21121;-82
2022/10/26 01:21:37;;;;;;;11.73;8.38;;;;;;;10.75;100.00;99228.41;1715576;81;21041;-82
2022/10/26 01:24:30;;;;;;;12.07;8.68;;;;;;;10.75;100.00;99231.97;1698217;83;21035;-82
2022/10/26 01:27:27;;;;;;;13.60;8.40;;;;;;;10.75;100.00;99228.41;1700391;83;21078;-81
2022/10/26 01:30:17;;;;;;;15.08;8.45;;;;;;;10.75;100.00;99228.41;1698601;83;21665;-82
2022/10/26 01:33:25;;;;;;;13.15;7.70;;;;;;;10.74;100.00;99224.05;1701774;83;21040;-83
2022/10/26 01:36:13;;;;;;;12.30;7.47;;;;;;;10.74;100.00;99232.29;1697556;83;21051;-82
2022/10/26 01:38:53;;;;;;;11.57;7.72;;;;;;;10.72;100.00;99231.80;1690727;83;20998;-83
2022/10/26 01:41:29;;;;;;;10.00;7.05;;;;;;;10.72;100.00;99230.44;1691991;83;21062;-83
2022/10/26 01:44:00;;;;;;;11.90;7.50;;;;;;;10.71;100.00;99236.48;1699141;83;21241;-83
2022/10/26 01:46:33;;;;;;;13.28;7.12;;;;;;;10.72;100.00;99240.05;1695986;83;21140;-85
2022/10/26 01:49:05;;;;;;;9.13;7.17;;;;;;;10.72;100.00;99233.18;1707055;83;21047;-83
2022/10/26 01:51:35;;;;;;;14.60;6.92;;;;;;;10.72;100.00;99234.55;1703432;83;21172;-84
2022/10/26 01:54:01;;;;;;;9.83;7.33;;;;;;;10.71;100.00;99231.00;1691977;83;21534;-83
2022/10/26 01:56:31;;;;;;;12.50;8.48;;;;;;;10.73;100.00;99232.05;1706708;83;21521;-84
2022/10/26 01:59:12;;;;;;;11.70;7.75;;;;;;;10.73;100.00;99237.54;1701010;83;21070;-83
2022/10/26 02:02:08;;;;;;;13.13;8.03;;;;;;;10.73;100.00;99238.34;1698346;83;21090;-83
2022/10/26 02:05:10;;;;;;;12.80;8.15;;;;;;;10.72;100.00;99236.73;1685488;83;21046;-85
2022/10/26 02:08:00;;;;;;;15.50;7.95;;;;;;;10.73;100.00;99236.17;1698324;83;21083;-85
2022/10/26 02:10:38;;;;;;;12.55;8.43;;;;;;;10.74;100.00;99241.90;1701161;83;21154;-84
2022/10/26 02:13:48;;;;;;;15.83;8.63;;;;;;;10.72;100.00;99236.73;1697259;83;21071;-84
2022/10/26 02:16:41;;;;;;;15.45;7.60;;;;;;;10.73;100.00;99238.91;1650034;84;21049;-86
2022/10/26 02:19:19;;;;;;;15.45;8.50;;;;;;;10.74;100.00;99242.70;1691885;83;21605;-86
2022/10/26 02:21:52;;;;;;;17.42;7.97;;;;;;;10.74;100.00;99244.64;1689989;83;21192;-83
2022/10/26 02:24:21;;;;;;;14.25;7.97;;;;;;;10.74;100.00;99242.70;1688370;83;21191;-85
2022/10/26 02:26:51;;;;;;;12.78;7.03;;;;;;;10.74;100.00;99248.20;1694948;83;20963;-82
2022/10/26 02:29:20;;;;;;;14.75;7.92;;;;;;;10.75;100.00;99238.83;1696169;83;21000;-82
2022/10/26 02:31:50;;;;;;;14.40;7.95;;;;;;;10.77;100.00;99246.17;1699935;83;21654;-85
2022/10/26 02:34:21;;;;;;;14.17;8.47;;;;;;;10.76;100.00;99240.45;1695322;83;21532;-82
2022/10/26 02:36:57;;;;;;;13.83;8.50;;;;;;;10.77;100.00;99239.87;1690531;82;21162;-82
2022/10/26 02:39:31;;;;;;;14.33;8.73;;;;;;;10.78;100.00;99238.75;1699931;81;21052;-81
2022/10/26 02:42:07;;;;;;;14.45;8.80;;;;;;;10.78;100.00;99242.87;1712582;82;21098;-83
2022/10/26 02:44:48;;;;;;;23.60;9.35;;;;;;;10.78;100.00;99242.87;1690493;83;21075;-79
2022/10/26 02:47:17;;;;;;;15.53;8.60;;;;;;;10.78;100.00;99238.75;1696215;83;21076;-78
2022/10/26 02:49:46;;;;;;;20.27;9.85;;;;;;;10.78;100.00;99240.13;1677204;83;21148;-79
2022/10/26 02:52:48;;;;;;;16.10;8.53;;;;;;;10.78;100.00;99243.67;1698809;83;21130;-82
2022/10/26 02:55:28;;;;;;;22.80;9.18;;;;;;;10.78;100.00;99241.49;1689263;83;21036;-80
2022/10/26 02:58:03;;;;;;;15.95;9.00;;;;;;;10.77;100.00;99245.38;1705739;82;21073;-82
2022/10/26 03:00:36;;;;;;;18.62;10.28;;;;;;;10.77;100.00;99242.62;1703641;83;22260;-80
2022/10/26 03:03:07;;;;;;;18.12;10.30;;;;;;;10.78;100.00;99242.87;1669293;83;21091;-82
2022/10/26 03:05:40;;;;;;;;;;;;;;;10.79;100.00;99243.91;1691588;83;21589;-84
2022/10/26 03:08:11;;;;;;;18.60;9.43;;;;;;;10.80;100.00;99252.39;1683483;82;20175;-80
2022/10/26 03:10:48;;;;;;;20.15;10.85;;;;;;;10.80;100.00;99245.53;1700149;82;21064;-81
2022/10/26 03:13:17;;;;;;;21.93;10.45;;;;;;;10.81;100.00;99250.45;1704297;81;21063;-82
2022/10/26 03:15:50;;;;;;;17.62;10.10;;;;;;;10.82;100.00;99242.46;1706156;83;21633;-81
2022/10/26 03:18:23;;;;;;;14.15;8.88;;;;;;;10.82;100.00;99246.58;1706320;83;21094;-82
2022/10/26 03:20:55;;;;;;;17.77;10.10;;;;;;;10.82;100.00;99248.76;1709459;82;21100;-82
2022/10/26 03:23:23;;;;;;;;;;;;;;;10.83;100.00;99254.49;1710260;83;21043;-83
2022/10/26 03:25:53;;;;;;;18.90;9.98;;;;;;;10.84;100.00;99250.61;1709874;83;20173;-83
2022/10/26 03:28:24;;;;;;;22.52;11.43;;;;;;;10.83;100.00;99246.81;1713319;82;21152;-84
2022/10/26 03:30:57;;;;;;;19.12;11.05;;;;;;;10.84;100.00;99247.06;1706597;82;21125;-83
2022/10/26 03:33:27;;;;;;;19.12;11.00;;;;;;;10.85;100.00;99254.17;1707092;82;21010;-88
2022/10/26 03:35:58;;;;;;;21.48;11.80;;;;;;;10.88;100.00;99256.27;1706249;83;20986;-89
2022/10/26 03:38:28;;;;;;;20.70;10.93;;;;;;;10.86;100.00;99248.35;1710853;83;21050;-77
2022/10/26 03:40:56;;;;;;;20.40;11.10;;;;;;;10.87;100.00;99254.66;1706392;83;21146;-74
2022/10/26 03:43:28;;;;;;;20.77;11.73;;;;;;;10.88;100.00;99247.46;1702320;83;21544;-74
2022/10/26 03:46:02;;;;;;;23.18;11.10;;;;;;;10.90;100.00;99260.87;1709029;83;21027;-73
2022/10/26 03:48:31;;;;;;;16.32;10.20;;;;;;;10.90;100.00;99253.44;1697787;83;21038;-71
2022/10/26 03:51:01;;;;;;;23.20;11.20;;;;;;;10.92;100.00;99253.11;1703209;83;21116;-72
2022/10/26 03:53:40;;;;;;;17.82;9.85;;;;;;;10.93;100.00;99257.47;1680450;83;21037;-73
2022/10/26 03:56:02;;;;;;;22.17;9.40;;;;;;;10.95;100.00;99251.66;1704066;83;21136;-72
2022/10/26 03:58:31;;;;;;;22.13;10.70;;;;;;;10.95;100.00;99248.34;1714908;83;20986;-71
2022/10/26 04:00:57;;;;;;;19.60;9.88;;;;;;;10.95;100.00;99248.34;1711261;83;21022;-71
2022/10/26 04:03:29;;;;;;;14.25;9.58;;;;;;;10.95;100.00;99251.09;1711299;83;21592;-72
2022/10/26 04:06:02;;;;;;;14.95;9.38;;;;;;;10.97;100.00;99247.45;1710458;83;21226;-74
2022/10/26 04:08:34;;;;;;;15.97;9.80;;;;;;;10.97;100.00;99248.02;1713169;82;21027;-72
2022/10/26 04:11:07;;;;;;;16.07;8.58;;;;;;;10.97;100.00;99255.69;1715199;83;21544;-77
2022/10/26 04:13:38;;;;;;;15.60;8.85;;;;;;;10.97;100.00;99252.14;1725496;82;21653;-78
2022/10/26 04:16:12;;;;;;;16.42;9.13;;;;;;;11.03;100.00;99254.36;1727174;81;21577;-76
2022/10/26 04:18:38;;;;;;;21.73;9.90;;;;;;;11.04;100.00;99254.60;1721465;82;21240;-76
2022/10/26 04:21:12;;;;;;;13.68;8.18;;;;;;;11.03;100.00;99250.80;1709387;82;21019;-77
2022/10/26 04:23:44;;;;;;;17.00;9.08;;;;;;;11.02;100.00;99256.86;1714825;82;21094;-75
2022/10/26 04:26:17;;;;;;;17.57;9.20;;;;;;;11.02;100.00;99256.86;1693266;83;20996;-76
2022/10/26 04:28:43;;;;;;;16.30;9.30;;;;;;;11.00;100.00;99257.76;1709221;82;21534;-76
2022/10/26 04:31:15;;;;;;;17.45;8.78;;;;;;;11.00;100.00;99254.20;1724843;80;21112;-76
2022/10/26 04:33:45;;;;;;;16.30;9.45;;;;;;;10.99;100.00;99251.22;1669682;83;20916;-77
2022/10/26 04:36:17;;;;;;;15.18;10.00;;;;;;;11.01;100.00;99247.58;1659124;84;21507;-75
2022/10/26 04:38:44;;;;;;;17.05;9.00;;;;;;;11.00;100.00;99248.14;1685496;83;21395;-76
2022/10/26 04:41:14;;;;;;;15.00;9.80;;;;;;;11.01;100.00;99251.13;1690491;83;21534;-74
2022/10/26 04:43:47;;;;;;;14.78;9.65;;;;;;;11.02;100.00;99253.31;1684120;84;21171;-70
2022/10/26 04:46:18;;;;;;;14.58;9.35;;;;;;;11.02;100.00;99251.94;1689223;83;21095;-71
2022/10/26 04:48:49;;;;;;;15.63;10.13;;;;;;;11.02;100.00;99256.86;1707524;81;21099;-70
2022/10/26 04:51:18;;;;;;;15.63;9.30;;;;;;;11.02;100.00;99256.86;1706767;81;21518;-69
2022/10/26 04:53:49;;;;;;;15.25;9.03;;;;;;;11.02;100.00;99251.94;1718283;81;21522;-69
2022/10/26 04:56:19;;;;;;;;;;;;;;;11.02;100.00;99259.61;1725567;81;21887;-69
2022/10/26 04:58:47;;;;;;;17.12;9.20;;;;;;;11.01;100.00;99253.07;1723080;82;20252;-69
2022/10/26 05:01:15;;;;;;;15.13;8.90;;;;;;;11.00;100.00;99252.27;1702948;82;21039;-70
2022/10/26 05:03:43;;;;;;;21.93;10.95;;;;;;;11.02;100.00;99248.63;1711997;82;21146;-70
2022/10/26 05:06:10;;;;;;;20.00;10.45;;;;;;;11.02;100.00;99252.75;1709177;81;21391;-71
2022/10/26 05:08:39;;;;;;;20.45;10.82;;;;;;;11.03;100.00;99257.67;1715539;81;21566;-77
2022/10/26 05:11:07;;;;;;;19.77;10.40;;;;;;;11.04;100.00;99259.29;1714357;82;21129;-76
2022/10/26 05:13:35;;;;;;;18.85;11.38;;;;;;;11.05;100.00;99259.53;1713984;82;21047;-76
2022/10/26 05:16:02;;;;;;;22.15;11.65;;;;;;;11.06;100.00;99259.77;1724333;81;21103;-79
2022/10/26 05:18:30;;;;;;;19.85;10.53;;;;;;;11.06;100.00;99258.40;1730403;81;22394;-72
2022/10/26 05:20:58;;;;;;;22.50;10.78;;;;;;;11.06;100.00;99261.95;1724956;82;21729;-77
2022/10/26 05:23:25;;;;;;;25.68;12.05;;;;;;;11.06;100.00;99264.70;1726479;81;21502;-72
2022/10/26 05:25:52;;;;;;;20.88;11.20;;;;;;;11.08;100.00;99268.49;1729618;82;21130;-72
2022/10/26 05:28:19;;;;;;;18.25;10.85;;;;;;;11.08;100.00;99267.92;1693001;81;21600;-70
2022/10/26 05:30:54;;;;;;;19.12;10.98;;;;;;;11.11;100.00;99266.47;1730819;81;21024;-69
2022/10/26 05:33:29;;;;;;;19.57;11.08;;;;;;;11.13;100.00;99265.01;1741527;81;21100;-68
2022/10/26 05:35:59;;;;;;;21.12;11.15;;;;;;;11.14;100.00;99262.50;1726446;81;21026;-71
2022/10/26 05:38:31;;;;;;;19.12;11.88;;;;;;;11.16;100.00;99263.55;1738596;80;20948;-70
2022/10/26 05:41:01;;;;;;;24.12;12.30;;;;;;;11.16;100.00;99260.23;1713038;81;21015;-72
2022/10/26 05:43:30;;;;;;;28.62;12.15;;;;;;;11.18;100.00;99264.84;1688693;82;21541;-72
2022/10/26 05:46:06;;;;;;;18.87;11.15;;;;;;;11.22;100.00;99263.63;1719459;82;21954;-71
2022/10/26 05:48:34;;;;;;;19.73;12.53;;;;;;;11.23;100.00;99268.79;1696741;83;22287;-72
2022/10/26 05:51:03;;;;;;;27.65;12.95;;;;;;;11.24;100.00;99267.66;1698298;83;21063;-72
2022/10/26 05:53:41;;;;;;;24.45;12.53;;;;;;;11.24;100.00;99273.16;1697252;83;21038;-75
2022/10/26 05:56:33;;;;;;;25.70;13.65;;;;;;;11.29;100.00;99275.48;1695514;83;21569;-74
2022/10/26 05:59:13;;;;;;;20.68;11.93;;;;;;;11.30;100.00;99271.61;1704982;83;21095;-76
2022/10/26 06:01:56;;;;;;;24.57;12.55;;;;;;;11.31;100.00;99274.03;1697408;83;21652;-77
2022/10/26 06:04:42;;;;;;;25.32;13.32;;;;;;;11.34;100.00;99275.31;1711750;83;21648;-75
2022/10/26 06:07:16;;;;;;;25.82;13.40;;;;;;;11.35;100.00;99272.80;1697733;84;21024;-75
2022/10/26 06:09:47;;;;;;;20.57;12.43;;;;;;;11.38;100.00;99285.89;1696502;83;21069;-75
2022/10/26 06:12:24;;;;;;;24.00;13.58;;;;;;;11.39;100.00;99281.45;1695794;83;21979;-73
2022/10/26 06:14:50;;;;;;;27.00;13.68;;;;;;;11.41;100.00;99283.87;1696023;81;21572;-73
2022/10/26 06:17:44;;;;;;;24.85;13.60;;;;;;;11.42;100.00;99286.29;1722920;82;21056;-74
2022/10/26 06:20:27;;;;;;;20.62;12.95;;;;;;;11.44;100.00;99286.77;1722375;82;21017;-70
2022/10/26 06:23:15;;;;;;;23.60;14.28;;;;;;;11.45;100.00;99293.08;1719772;81;21078;-71
2022/10/26 06:26:07;;;;;;;28.15;13.48;;;;;;;11.48;100.00;99292.42;1692094;82;21100;-70
2022/10/26 06:28:50;;;;;;;28.05;14.05;;;;;;;11.50;100.00;99300.58;1719828;82;21059;-81
2022/10/26 06:31:23;;;;;;;26.77;14.20;;;;;;;11.54;100.00;99299.36;1724759;82;21015;-82
2022/10/26 06:33:56;;;;;;;26.73;14.65;;;;;;;11.58;100.00;99307.16;1704057;82;21035;-70
2022/10/26 06:36:26;;;;;;;23.30;13.90;;;;;;;11.57;100.00;99302.22;1726921;82;21655;-71
2022/10/26 06:39:12;;;;;;;26.75;13.93;;;;;;;11.58;100.00;99306.59;1724729;82;21264;-72
2022/10/26 06:41:41;;;;;;;31.37;15.28;;;;;;;11.59;100.00;99304.08;1710308;82;20958;-69
2022/10/26 06:44:17;;;;;;;26.25;15.72;;;;;;;11.59;100.00;99315.64;1722896;81;21058;-71
2022/10/26 06:47:08;;;;;;;27.95;15.53;;;;;;;11.58;100.00;99313.47;1718708;81;21051;-73
2022/10/26 06:49:55;;;;;;;22.70;14.53;;;;;;;11.59;100.00;99317.83;1718072;82;21016;-72
2022/10/26 06:52:36;;;;;;;31.57;16.02;;;;;;;11.62;100.00;99319.68;1672724;84;21560;-82
2022/10/26 06:55:05;;;;;;;29.37;15.53;;;;;;;11.64;100.00;99325.66;1716654;82;21102;-83
2022/10/26 06:57:34;;;;;;;23.92;14.33;;;;;;;11.64;100.00;99325.66;1721506;81;21263;-82
2022/10/26 07:00:09;;;;;;;32.58;16.60;;;;;;;11.63;100.00;99326.23;1727611;81;21059;-77
2022/10/26 07:02:39;;;;;;;29.92;15.55;;;;;;;11.64;100.00;99327.84;1725360;80;21028;-73
2022/10/26 07:05:11;;;;;;;29.30;14.75;;;;;;;11.65;100.00;99333.58;1722564;81;21754;-76
2022/10/26 07:07:35;;;;;;;27.62;15.38;;;;;;;11.68;100.00;99332.12;1717882;82;20999;-73
2022/10/26 07:10:02;;;;;;;25.35;15.15;;;;;;;11.70;100.00;99336.16;1719902;82;21094;-76
2022/10/26 07:12:32;;;;;;;27.30;16.00;;;;;;;11.71;100.00;99333.64;1717656;81;47090;-77
2022/10/26 07:15:00;;;;;;;26.90;16.45;;;;;;;11.72;100.00;99335.26;1724985;81;21134;-73
2022/10/26 07:17:27;;;;;;;24.90;16.20;;;;;;;11.72;100.00;99330.33;1732039;82;21530;-72
2022/10/26 07:19:54;;;;;;;25.00;14.85;;;;;;;11.73;100.00;99334.12;1732979;82;21013;-77
2022/10/26 07:22:24;;;;;;;26.85;16.87;;;;;;;11.76;100.00;99337.59;1735463;81;21012;-70
2022/10/26 07:24:54;;;;;;;25.90;16.10;;;;;;;11.79;100.00;99333.41;1695552;82;21043;-72
2022/10/26 07:27:22;;;;;;;26.30;14.47;;;;;;;11.81;100.00;99338.02;1689917;83;21151;-71
2022/10/26 07:29:51;;;;;;;27.73;14.70;;;;;;;11.84;100.00;99342.86;1699000;82;21019;-73
2022/10/26 07:32:18;;;;;;;28.67;14.70;;;;;;;11.88;100.00;99341.88;1715186;82;21026;-74
2022/10/26 07:34:45;;;;;;;28.40;15.85;;;;;;;11.94;100.00;99336.19;1725985;82;21640;-74
2022/10/26 07:37:12;;;;;;;25.68;14.70;;;;;;;11.97;100.00;99339.66;1720982;80;21653;-73
2022/10/26 07:39:39;;;;;;;26.85;15.88;;;;;;;12.02;100.00;99340.86;1715125;81;21339;-72
2022/10/26 07:42:08;;;;;;;28.65;15.98;;;;;;;12.06;100.00;99341.81;1720773;82;21138;-75
2022/10/26 07:44:35;;;;;;;24.02;15.72;;;;;;;12.08;100.00;99338.16;1720997;81;21025;-75
2022/10/26 07:47:01;;;;;;;26.93;15.45;;;;;;;12.12;100.00;99339.11;1710586;82;21085;-75
2022/10/26 07:49:28;;;;;;;26.23;15.32;;;;;;;12.14;100.00;99343.12;1715449;81;21119;-70
2022/10/26 07:51:54;;;;;;;24.00;14.73;;;;;;;12.19;100.00;99342.12;1723028;82;21065;-70
2022/10/26 07:54:21;;;;;;;22.90;14.30;;;;;;;12.22;100.00;99339.52;1717855;81;21664;-70
2022/10/26 07:56:50;;;;;;;25.27;15.10;;;;;;;12.24;100.00;99342.75;1722872;82;21008;-69
2022/10/26 07:59:17;;;;;;;25.15;14.15;;;;;;;12.29;100.00;99342.32;1716326;82;21106;-69
2022/10/26 08:01:44;;;;;;;25.43;14.75;;;;;;;12.32;100.00;99338.34;1717040;82;21280;-73
2022/10/26 08:04:11;;;;;;;19.27;13.80;;;;;;;12.36;100.00;99331.03;1719921;81;21208;-75
2022/10/26 08:06:38;;;;;;;21.40;14.43;;;;;;;12.41;100.00;99340.47;1716534;81;21166;-75
2022/10/26 08:09:05;;;;;;;23.92;14.07;;;;;;;12.48;100.00;99342.13;1724322;82;21055;-71
2022/10/26 08:11:40;;;;;;;24.47;14.25;;;;;;;12.58;100.00;99345.64;1715004;82;21106;-72
2022/10/26 08:14:04;;;;;;;24.07;13.20;;;;;;;12.64;100.00;99345.11;1711622;82;21078;-71
2022/10/26 08:16:33;;;;;;;21.48;13.58;;;;;;;12.72;100.00;99346.97;1737577;81;21016;-74
2022/10/26 08:19:00;;;;;;;23.47;13.18;;;;;;;12.83;100.00;99343.25;1718206;82;21081;-70
2022/10/26 08:21:33;;;;;;;21.52;12.65;;;;;;;12.94;100.00;99348.60;1710925;82;21032;-73
2022/10/26 08:24:04;;;;;;;17.98;12.65;;;;;;;13.02;100.00;99350.48;1726496;82;21639;-73
2022/10/26 08:26:36;;;;;;;21.45;13.15;;;;;;;13.08;100.00;99364.87;1718793;82;21657;-77
2022/10/26 08:29:08;;;;;;;21.02;11.97;;;;;;;13.12;100.00;99360.30;1717622;82;21089;-79
2022/10/26 08:31:39;;;;;;;17.95;11.65;;;;;;;13.12;100.00;99357.54;1723404;82;21565;-71
2022/10/26 08:34:06;;;;;;;21.17;12.80;;;;;;;13.09;100.00;99365.10;1725460;82;21023;-72
2022/10/26 08:36:33;;;;;;;15.65;10.85;;;;;;;13.07;100.00;99364.06;1718955;82;21047;-73
2022/10/26 08:38:59;;;;;;;26.87;13.10;;;;;;;13.06;100.00;99369.91;1712998;82;22327;-73
2022/10/26 08:41:37;;;;;;;21.15;11.85;;;;;;;13.04;100.00;99374.95;1716711;82;21034;-70
2022/10/26 08:44:21;;;;;;;18.05;11.38;;;;;;;13.01;100.00;99367.36;1722881;82;21135;-74
2022/10/26 08:46:57;;;;;;;17.40;11.60;;;;;;;12.97;100.00;99373.30;1705670;81;20987;-76
2022/10/26 08:49:28;;;;;;;20.52;12.18;;;;;;;12.96;100.00;99382.13;1731546;81;21537;-77
2022/10/26 08:51:59;;;;;;;21.80;11.40;;;;;;;12.95;100.00;99379.14;1728411;81;21539;-80
2022/10/26 08:54:53;;;;;;;18.77;11.33;;;;;;;12.93;100.00;99384.19;1719235;81;21120;-73
2022/10/26 08:57:40;;;;;;;18.12;11.20;;;;;;;12.93;100.00;99389.69;1699446;82;21242;-73
2022/10/26 09:00:17;;;;;;;18.05;10.82;;;;;;;12.92;100.00;99388.65;1727065;82;21557;-74
2022/10/26 09:02:52;;;;;;;16.50;10.70;;;;;;;13.03;100.00;99389.30;1729613;82;21514;-69
2022/10/26 09:05:36;;;;;;;14.05;9.45;;;;;;;13.37;100.00;99390.97;1744612;81;21052;-74
2022/10/26 09:08:26;;;;;;;15.30;9.08;;;;;;;13.72;100.00;99394.22;1732676;82;21085;-74
2022/10/26 09:11:26;;;;;;;17.92;8.50;;;;;;;13.91;100.00;99389.53;1729139;82;21529;-74
2022/10/26 09:14:18;;;;;;;16.42;8.88;;;;;;;14.01;100.00;99396.56;1725396;82;20976;-73
2022/10/26 09:17:10;;;;;;;13.10;7.95;;;;;;;14.45;100.00;99394.90;1729814;81;21016;-72
2022/10/26 09:20:03;;;;;;;13.30;8.38;;;;;;;15.05;100.00;99383.53;1730999;82;21118;-73
2022/10/26 09:22:51;;;;;;;10.72;7.45;;;;;;;15.45;100.00;99405.08;1723121;82;21490;-74
2022/10/26 09:25:25;;;;;;;9.03;6.45;;;;;;;15.49;100.00;99411.52;1725912;81;21148;-70
2022/10/26 09:28:03;;;;;;;9.80;6.70;;;;;;;15.35;100.00;99394.51;1722120;82;21110;-74
2022/10/26 09:30:36;;;;;;;11.80;7.28;;;;;;;15.08;100.00;99399.42;1741745;81;20968;-71
2022/10/26 09:33:16;;;;;;;16.70;6.67;;;;;;;14.88;100.00;99409.50;1726773;82;20967;-71
2022/10/26 09:35:57;;;;;;;12.63;6.53;;;;;;;14.72;100.00;99404.45;1738040;81;21062;-74
2022/10/26 09:38:39;;;;;;;14.83;7.03;;;;;;;14.51;100.00;99408.71;1734492;81;21309;-72
2022/10/26 09:41:29;;;;;;;10.58;7.20;;;;;;;14.26;100.00;99416.16;1720406;82;21035;-72
2022/10/26 09:44:24;;;;;;;12.68;7.37;;;;;;;14.10;100.00;99417.41;1712491;82;20987;-70
2022/10/26 09:47:12;;;;;;;13.58;7.05;;;;;;;14.04;100.00;99419.34;1707191;82;20975;-70
2022/10/26 09:49:50;;;;;;;12.73;7.10;;;;;;;13.96;100.00;99425.19;1716268;80;21089;-75
2022/10/26 09:52:20;;;;;;;10.48;6.67;;;;;;;13.83;100.00;99422.19;1720490;81;21566;-75
2022/10/26 09:54:47;;;;;;;13.40;7.45;;;;;;;13.70;100.00;99423.29;1723613;82;21091;-71
2022/10/26 09:57:18;;;;;;;11.78;7.08;;;;;;;13.61;100.00;99421.98;1727086;82;20947;-72
2022/10/26 09:59:46;;;;;;;11.75;7.30;;;;;;;13.54;100.00;99422.53;1716610;81;21035;-75
2022/10/26 10:02:42;;;;;;;16.32;7.40;;;;;;;13.47;100.00;99424.22;1707616;83;21555;-74
2022/10/26 10:05:30;;;;;;;10.70;7.03;;;;;;;13.38;100.00;99431.19;1716335;81;21138;-74
2022/10/26 10:08:19;;;;;;;18.50;7.83;;;;;;;13.29;100.00;99427.69;1710878;82;20987;-72
2022/10/26 10:11:02;;;;;;;11.90;8.03;;;;;;;13.19;100.00;99428.93;1720253;81;21529;-72
2022/10/26 10:13:44;;;;;;;17.57;7.58;;;;;;;13.10;100.00;99428.16;1717410;82;21054;-73
2022/10/26 10:16:22;;;;;;;15.63;8.53;;;;;;;13.04;100.00;99428.69;1718841;82;21055;-74
2022/10/26 10:18:58;;;;;;;18.50;9.05;;;;;;;13.00;100.00;99427.73;1728322;82;21162;-73
2022/10/26 10:21:46;;;;;;;17.15;9.23;;;;;;;12.94;100.00;99421.61;1699400;82;21593;-74
2022/10/26 10:24:31;;;;;;;16.60;9.53;;;;;;;12.92;100.00;99418.39;1724291;81;21039;-74
2022/10/26 10:27:18;;;;;;;18.95;9.23;;;;;;;12.95;100.00;99417.72;1715307;82;21035;-73
2022/10/26 10:29:56;;;;;;;16.05;9.38;;;;;;;12.92;100.00;99428.03;1699097;81;21094;-73
2022/10/26 10:32:33;;;;;;;19.27;10.10;;;;;;;12.90;100.00;99431.12;1730252;81;21984;-72
2022/10/26 10:35:06;;;;;;;18.45;10.10;;;;;;;12.94;100.00;99429.08;1716377;82;21105;-75
2022/10/26 10:37:43;;;;;;;22.60;10.28;;;;;;;12.98;100.00;99423.13;1693335;82;21095;-74
2022/10/26 10:40:20;;;;;;;16.80;9.58;;;;;;;13.03;100.00;99418.23;1725963;82;20972;-73
2022/10/26 10:42:49;;;;;;;15.75;9.05;;;;;;;13.12;100.00;99425.06;1724571;81;21699;-74
2022/10/26 10:45:25;;;;;;;14.30;9.30;;;;;;;13.20;100.00;99425.03;1732287;81;21006;-74
2022/10/26 10:48:23;;;;;;;14.98;9.55;;;;;;;13.29;100.00;99419.99;1721917;82;22182;-74
2022/10/26 10:50:57;;;;;;;12.88;8.63;;;;;;;13.34;100.00;99420.59;1720265;82;21062;-76
2022/10/26 10:53:48;;;;;;;19.02;8.98;;;;;;;13.42;100.00;99418.34;1718900;82;21082;-74
2022/10/26 10:56:47;;;;;;;14.10;8.75;;;;;;;13.55;100.00;99409.55;1724420;81;21592;-73
2022/10/26 10:59:41;;;;;;;13.78;7.80;;;;;;;13.97;100.00;99418.52;1665421;84;21185;-75
2022/10/26 11:02:43;;;;;;;15.05;8.40;;;;;;;14.33;100.00;99415.60;1700576;82;20975;-74
2022/10/26 11:05:18;;;;;;;12.13;8.03;;;;;;;14.41;100.00;99425.19;1727175;82;21580;-75
2022/10/26 11:08:06;;;;;;;14.05;8.20;;;;;;;14.38;100.00;99419.52;1734658;82;21404;-74
2022/10/26 11:10:45;;;;;;;15.88;8.28;;;;;;;14.36;100.00;99419.05;1692658;81;21034;-76
2022/10/26 11:13:30;;;;;;;13.95;7.85;;;;;;;14.63;100.00;99429.44;1708019;81;21253;-75
2022/10/26 11:16:06;;;;;;;9.43;6.22;;;;;;;15.18;100.00;99426.01;1673791;84;20997;-75
2022/10/26 11:18:44;;;;;;;16.37;8.28;;;;;;;15.85;100.00;99405.60;1665863;85;21557;-73
2022/10/26 11:21:22;;;;;;;16.57;7.72;;;;;;;16.04;100.00;99418.77;1668355;85;20980;-73
2022/10/26 11:24:09;;;;;;;14.58;7.85;;;;;;;15.98;100.00;99421.56;1651178;84;21035;-73
2022/10/26 11:27:01;;;;;;;11.45;7.85;;;;;;;15.76;100.00;99418.21;1702673;82;21185;-74
2022/10/26 11:29:51;;;;;;;15.78;8.55;;;;;;;15.44;100.00;99428.94;1711844;82;21605;-73
2022/10/26 11:32:47;;;;;;;11.75;7.03;;;;;;;15.11;100.00;99416.69;1714287;82;21048;-73
2022/10/26 11:35:32;;;;;;;18.45;9.08;;;;;;;14.96;100.00;99422.97;1696631;82;21052;-74
2022/10/26 11:38:39;;;;;;;19.27;9.35;;;;;;;14.85;100.00;99425.40;1720426;82;21054;-73
2022/10/26 11:41:37;;;;;;;13.93;8.35;;;;;;;14.72;100.00;99430.70;1743403;80;21283;-75
2022/10/26 11:44:33;;;;;;;13.50;7.50;;;;;;;14.63;100.00;99427.24;1717675;81;20968;-73
2022/10/26 11:47:14;;;;;;;15.35;6.87;;;;;;;15.03;100.00;99422.58;1693883;82;21113;-74
2022/10/26 11:49:53;;;;;;;8.30;5.73;;;;;;;15.49;100.00;99428.70;1696892;81;21087;-74
2022/10/26 11:52:42;;;;;;;9.03;5.78;;;;;;;15.63;100.00;99428.30;1717312;82;21042;-74